Terminal Aerodrome Forecast
Issued by NWS

Home | Current Version | Previous Version | Text Only | Print | Product List | Glossary On
Versions: 1 2 3 4 5 6 7 8 9 10 11 12 13 14 15 16 17
000
FTUS46 KLOX 010500
TAFSBP
TAF
KSBP 010538Z 0106/0206 VRB03KT P6SM VCSH SCT025 BKN040
     FM011700 VRB03KT P6SM VCSH SCT025 BKN050
     FM012100 29008KT P6SM VCSH SCT035 BKN070
     FM020300 VRB03KT P6SM SCT050 BKN100=

USA.gov is the U.S. government's official web portal to all federal, state and local government web resources and services.